Time;durP1;ratioP1;P1;durP2;ratioP2;P2;SDS_P1;SDS_P2;PMS_P1;PMS_P2;Temp;Humidity;BMP_temperature;BMP_pressure;BME280_temperature;BME280_humidity;BME280_pressure;Samples;Min_cycle;Max_cycle;Signal;HPM_P1;HPM_P2
2023/12/03 00:02:13;;;;;;;5.10;2.70;;;;;;;5.18;81.16;94413.02;106702;1276;22546;-80
2023/12/03 00:04:43;;;;;;;4.60;3.40;;;;;;;5.11;81.25;94427.44;106567;1276;22536;-79
2023/12/03 00:07:12;;;;;;;9.70;6.80;;;;;;;5.07;81.04;94437.96;106641;1276;23944;-79
2023/12/03 00:09:41;;;;;;;6.00;4.00;;;;;;;4.95;81.50;94452.45;106656;1276;22520;-79
2023/12/03 00:12:09;;;;;;;5.00;3.50;;;;;;;4.82;81.83;94459.94;106558;1276;25611;-79
2023/12/03 00:14:37;;;;;;;6.40;4.10;;;;;;;4.69;81.73;94458.06;106610;1267;24356;-79
2023/12/03 00:17:05;;;;;;;3.60;2.70;;;;;;;4.51;82.40;94464.56;106612;1276;22607;-79
2023/12/03 00:19:34;;;;;;;8.30;3.80;;;;;;;4.36;82.74;94464.95;106608;1276;22519;-78
2023/12/03 00:22:02;;;;;;;4.10;3.30;;;;;;;4.26;82.70;94470.46;106591;1276;25388;-78
2023/12/03 00:24:30;;;;;;;5.40;4.00;;;;;;;4.04;83.72;94470.38;106618;1276;22674;-79
2023/12/03 00:26:59;;;;;;;7.60;5.40;;;;;;;3.92;84.03;94481.31;106471;1276;22612;-79
2023/12/03 00:37:15;;;;;;;6.70;4.90;;;;;;;3.52;85.10;94474.05;103624;1307;544927;-78
2023/12/03 00:39:43;;;;;;;5.60;3.00;;;;;;;3.51;84.89;94481.19;105920;1289;25324;-79
2023/12/03 00:42:11;;;;;;;5.10;3.80;;;;;;;3.51;84.52;94487.63;105877;1289;22589;-78
2023/12/03 00:44:40;;;;;;;6.60;4.40;;;;;;;3.51;84.16;94487.79;105947;1289;24242;-78
2023/12/03 00:47:08;;;;;;;4.80;3.20;;;;;;;3.49;83.80;94486.95;105915;1289;22676;-79
2023/12/03 00:49:36;;;;;;;5.80;4.20;;;;;;;3.44;83.65;94496.20;105870;1289;24268;-78
2023/12/03 00:52:08;;;;;;;5.60;3.70;;;;;;;3.38;83.58;94500.96;105725;1286;22670;-79
2023/12/03 00:54:36;;;;;;;5.60;3.70;;;;;;;3.36;83.30;94499.41;106163;1280;22540;-79
2023/12/03 00:57:05;;;;;;;5.50;3.80;;;;;;;3.33;83.27;94496.48;106116;1280;22671;-79
2023/12/03 00:59:33;;;;;;;7.10;4.00;;;;;;;3.32;82.99;94509.52;106298;1280;24259;-79
2023/12/03 01:02:02;;;;;;;7.90;4.30;;;;;;;3.32;82.95;94511.95;106216;1280;22692;-79
2023/12/03 01:04:30;;;;;;;5.70;3.60;;;;;;;3.31;82.36;94519.27;106174;1280;22638;-79
2023/12/03 01:06:58;;;;;;;7.30;3.90;;;;;;;3.29;82.28;94520.84;106145;1280;22643;-79
2023/12/03 01:09:30;;;;;;;5.60;3.60;;;;;;;3.26;82.17;94523.13;106188;1280;25429;-79
2023/12/03 01:11:58;;;;;;;4.80;3.50;;;;;;;3.24;81.95;94526.61;106256;1279;24174;-80
2023/12/03 01:14:27;;;;;;;6.30;3.30;;;;;;;3.25;81.74;94532.34;106653;1275;25517;-79
2023/12/03 01:16:55;;;;;;;4.30;3.50;;;;;;;3.27;81.73;94542.77;106598;1275;22550;-79
2023/12/03 01:19:23;;;;;;;8.40;3.60;;;;;;;3.28;81.53;94553.36;106654;1275;26581;-79
2023/12/03 01:21:52;;;;;;;5.70;4.00;;;;;;;3.26;80.97;94558.92;106664;1275;22527;-78
2023/12/03 01:24:20;;;;;;;4.00;3.30;;;;;;;3.23;80.85;94571.27;106735;1275;22757;-79
2023/12/03 01:26:49;;;;;;;6.90;3.80;;;;;;;3.20;80.60;94577.22;106637;1275;22759;-79
2023/12/03 01:29:17;;;;;;;4.50;3.30;;;;;;;3.17;80.47;94579.48;106663;1275;24393;-78
2023/12/03 01:31:45;;;;;;;6.00;4.00;;;;;;;3.12;80.20;94585.95;106589;1275;24973;-79
2023/12/03 01:34:14;;;;;;;6.20;4.20;;;;;;;3.07;80.06;94595.02;106990;1275;22518;-79
2023/12/03 01:36:42;;;;;;;5.80;3.90;;;;;;;3.01;80.00;94602.70;106665;1275;22527;-78
2023/12/03 01:39:12;;;;;;;4.80;3.80;;;;;;;2.95;80.21;94601.52;106758;1275;24271;-79
2023/12/03 01:41:41;;;;;;;5.90;4.00;;;;;;;2.89;80.40;94602.93;106697;1275;24302;-78
2023/12/03 01:44:09;;;;;;;6.40;4.50;;;;;;;2.82;80.65;94610.27;106616;1275;24739;-78
2023/12/03 01:46:38;;;;;;;7.20;4.80;;;;;;;2.73;80.75;94614.99;106632;1275;25266;-79
2023/12/03 01:49:06;;;;;;;7.50;4.50;;;;;;;2.65;81.12;94624.23;106501;1275;24348;-78
2023/12/03 01:51:35;;;;;;;8.60;4.70;;;;;;;2.54;82.14;94628.60;106567;1275;22535;-79
2023/12/03 01:54:03;;;;;;;7.60;5.10;;;;;;;2.48;82.27;94638.17;106620;1275;22534;-78
2023/12/03 01:56:32;;;;;;;7.40;4.70;;;;;;;2.44;82.46;94646.52;106566;1270;22786;-78
2023/12/03 01:59:00;;;;;;;8.50;5.10;;;;;;;2.38;82.74;94653.64;106608;1275;25300;-79
2023/12/03 02:01:29;;;;;;;8.00;5.60;;;;;;;2.30;82.66;94662.17;106735;1275;22516;-78
2023/12/03 02:03:57;;;;;;;8.10;5.70;;;;;;;2.24;82.88;94666.00;106665;1275;22569;-79
2023/12/03 02:06:26;;;;;;;9.20;5.90;;;;;;;2.18;83.05;94677.80;106646;1275;22531;-78
2023/12/03 02:08:55;;;;;;;9.70;6.50;;;;;;;2.13;82.98;94684.58;106667;1275;23886;-77
2023/12/03 02:11:23;;;;;;;10.10;6.60;;;;;;;2.11;83.10;94698.27;106603;1275;25436;-77
2023/12/03 02:13:51;;;;;;;10.60;7.10;;;;;;;2.11;83.48;94713.55;106623;1275;25373;-78
2023/12/03 02:16:21;;;;;;;12.90;8.90;;;;;;;2.08;83.73;94725.69;106630;1275;22757;-79
2023/12/03 02:18:49;;;;;;;12.50;8.50;;;;;;;2.00;83.44;94733.48;106565;1275;23886;-78
2023/12/03 02:21:17;;;;;;;13.40;8.40;;;;;;;1.91;83.33;94746.15;106593;1269;23010;-78
2023/12/03 02:23:47;;;;;;;13.70;8.70;;;;;;;1.85;83.52;94751.17;106728;1275;24471;-79
2023/12/03 02:26:15;;;;;;;13.20;8.50;;;;;;;1.82;83.30;94746.84;106584;1275;22530;-78
2023/12/03 02:28:43;;;;;;;12.80;8.40;;;;;;;1.74;83.47;94752.02;106648;1275;22531;-80
2023/12/03 02:31:12;;;;;;;12.00;7.90;;;;;;;1.65;83.36;94759.46;106766;1275;25246;-78
2023/12/03 02:33:53;;;;;;;12.70;9.10;;;;;;;1.53;83.24;94762.73;106614;1275;25426;-79
2023/12/03 02:36:21;;;;;;;14.20;9.70;;;;;;;1.42;83.35;94771.36;106644;1275;24205;-78
2023/12/03 02:38:49;;;;;;;13.50;9.40;;;;;;;1.32;83.43;94775.98;106589;1264;22558;-79
2023/12/03 02:41:18;;;;;;;15.80;10.50;;;;;;;1.23;83.16;94780.30;106681;1275;25267;-79
2023/12/03 02:43:46;;;;;;;14.30;10.10;;;;;;;1.12;82.95;94779.03;106684;1275;25407;-79
2023/12/03 02:46:14;;;;;;;17.00;10.70;;;;;;;0.98;83.09;94783.13;106582;1275;22559;-77
2023/12/03 02:48:42;;;;;;;14.30;10.50;;;;;;;0.86;83.32;94788.59;106570;1275;23010;-78
2023/12/03 02:51:11;;;;;;;17.60;10.20;;;;;;;0.77;83.54;94802.76;106715;1275;24476;-78
2023/12/03 02:53:39;;;;;;;15.30;10.40;;;;;;;0.69;83.95;94811.70;106729;1275;24339;-79
2023/12/03 02:56:07;;;;;;;17.60;11.10;;;;;;;0.63;84.08;94811.46;106669;1275;22529;-78
2023/12/03 02:58:35;;;;;;;16.50;11.10;;;;;;;0.56;83.86;94816.80;106706;1275;25367;-78
2023/12/03 03:01:05;;;;;;;18.20;11.50;;;;;;;0.50;84.03;94819.88;106596;1275;22649;-78
2023/12/03 03:03:34;;;;;;;18.00;12.00;;;;;;;0.44;84.12;94815.84;106685;1275;25291;-77
2023/12/03 03:06:02;;;;;;;18.40;11.70;;;;;;;0.42;84.29;94815.32;106792;1275;22537;-79
2023/12/03 03:08:30;;;;;;;17.40;11.10;;;;;;;0.38;84.45;94813.55;106662;1275;22752;-78
2023/12/03 03:10:58;;;;;;;16.90;12.10;;;;;;;0.40;84.39;94817.03;106622;1275;25432;-78
2023/12/03 03:13:27;;;;;;;19.00;11.80;;;;;;;0.42;84.54;94822.40;106609;1275;25247;-79
2023/12/03 03:15:55;;;;;;;19.30;11.80;;;;;;;0.43;84.41;94825.87;106601;1275;26649;-78
2023/12/03 03:18:23;;;;;;;17.20;11.70;;;;;;;0.38;84.53;94830.51;106600;1275;22523;-78
2023/12/03 03:20:51;;;;;;;19.70;13.40;;;;;;;0.37;84.56;94835.86;106597;1275;22622;-79
2023/12/03 03:23:20;;;;;;;17.30;11.40;;;;;;;0.36;84.48;94843.80;106595;1275;25416;-78
2023/12/03 03:25:48;;;;;;;18.30;12.20;;;;;;;0.34;84.45;94853.65;106625;1259;24332;-78
2023/12/03 03:28:16;;;;;;;17.10;11.60;;;;;;;0.33;84.40;94853.30;106936;1275;22529;-78
2023/12/03 03:30:45;;;;;;;18.10;11.70;;;;;;;0.34;84.43;94860.41;106844;1275;22542;-79
2023/12/03 03:33:13;;;;;;;18.40;11.50;;;;;;;0.31;84.28;94876.63;106602;1275;22540;-78
2023/12/03 03:35:41;;;;;;;17.10;11.70;;;;;;;0.22;84.33;94881.73;106581;1275;24278;-78
2023/12/03 03:38:10;;;;;;;15.30;11.10;;;;;;;0.09;84.42;94885.06;106576;1275;25506;-78
2023/12/03 03:40:38;;;;;;;18.60;11.70;;;;;;;0.05;84.51;94888.85;106741;1275;25419;-78
2023/12/03 03:43:06;;;;;;;17.20;10.80;;;;;;;0.05;84.54;94897.30;106574;1275;22528;-78
2023/12/03 03:45:34;;;;;;;16.60;11.30;;;;;;;0.02;84.52;94901.94;106570;1275;25291;-78
2023/12/03 03:48:03;;;;;;;16.50;10.70;;;;;;;0.00;84.41;94905.20;106589;1275;24301;-78
2023/12/03 03:50:31;;;;;;;15.70;10.70;;;;;;;-0.06;84.19;94912.41;106584;1275;25369;-77
2023/12/03 03:53:00;;;;;;;15.40;9.90;;;;;;;-0.13;84.18;94923.56;106591;1275;22544;-78
2023/12/03 03:55:28;;;;;;;16.90;11.30;;;;;;;-0.24;84.01;94942.27;106611;1275;25431;-78
2023/12/03 03:57:56;;;;;;;18.10;11.50;;;;;;;-0.33;84.25;94960.30;106577;1275;24266;-78
2023/12/03 04:00:24;;;;;;;18.70;11.00;;;;;;;-0.39;84.35;94966.97;106676;1275;25502;-78
2023/12/03 04:02:52;;;;;;;18.70;11.30;;;;;;;-0.37;84.50;94964.39;106588;1275;25309;-78
2023/12/03 04:05:21;;;;;;;20.50;11.80;;;;;;;-0.38;84.02;94968.01;106769;1264;22520;-77
2023/12/03 04:07:49;;;;;;;15.80;11.80;;;;;;;-0.39;83.89;94973.36;106872;1275;22518;-79
2023/12/03 04:10:17;;;;;;;20.30;12.70;;;;;;;-0.40;83.81;94974.20;106750;1275;25362;-78
2023/12/03 04:12:46;;;;;;;20.60;12.60;;;;;;;-0.43;83.60;94975.73;106661;1275;24395;-78
2023/12/03 04:15:16;;;;;;;18.20;10.80;;;;;;;-0.48;83.45;94987.75;106787;1275;22534;-78
2023/12/03 04:17:44;;;;;;;15.60;9.30;;;;;;;-0.57;83.64;94992.63;106559;1275;24221;-78
2023/12/03 04:20:13;;;;;;;16.00;9.50;;;;;;;-0.64;84.12;94994.96;106862;1264;25380;-78
2023/12/03 04:22:41;;;;;;;16.90;10.90;;;;;;;-0.67;84.14;94991.11;106609;1275;22530;-77
2023/12/03 04:25:09;;;;;;;19.10;12.30;;;;;;;-0.72;84.05;94997.42;106615;1275;25353;-77
2023/12/03 04:27:37;;;;;;;15.80;10.80;;;;;;;-0.72;84.04;95005.36;106641;1275;25245;-78
2023/12/03 04:30:06;;;;;;;18.90;10.40;;;;;;;-0.72;83.82;95019.02;106600;1275;22688;-78
2023/12/03 04:32:34;;;;;;;18.40;12.30;;;;;;;-0.72;83.94;95015.56;106665;1275;25263;-77
2023/12/03 04:35:03;;;;;;;19.90;12.50;;;;;;;-0.72;83.81;95008.98;106685;1275;22648;-77
2023/12/03 04:37:31;;;;;;;22.20;13.50;;;;;;;-0.74;83.75;95014.14;106786;1275;22520;-77
2023/12/03 04:39:59;;;;;;;18.50;12.50;;;;;;;-0.78;83.74;95012.20;106954;1275;22528;-78
2023/12/03 04:42:27;;;;;;;15.90;10.60;;;;;;;-0.84;83.61;95022.46;106718;1275;22536;-77
2023/12/03 04:44:56;;;;;;;17.10;11.00;;;;;;;-0.91;83.58;95019.23;106590;1275;24368;-77
2023/12/03 04:47:24;;;;;;;23.70;14.00;;;;;;;-0.97;83.50;95025.89;106578;1275;24509;-78
2023/12/03 04:49:53;;;;;;;22.70;11.50;;;;;;;-1.04;83.76;95023.85;106749;1263;25563;-78
2023/12/03 04:52:21;;;;;;;14.10;8.70;;;;;;;-1.15;84.03;95039.73;106590;1275;22590;-77
2023/12/03 04:54:49;;;;;;;15.20;9.40;;;;;;;-1.25;84.60;95040.08;106590;1275;25413;-78
2023/12/03 04:57:17;;;;;;;17.40;10.40;;;;;;;-1.29;84.94;95045.52;106657;1275;22540;-77
2023/12/03 04:59:45;;;;;;;19.00;8.30;;;;;;;-1.34;85.03;95051.30;106655;1275;24267;-78
2023/12/03 05:02:14;;;;;;;18.30;10.00;;;;;;;-1.34;84.90;95063.73;106570;1275;22517;-78
2023/12/03 05:04:42;;;;;;;19.90;11.00;;;;;;;-1.35;84.85;95071.11;106652;1275;22537;-79
2023/12/03 05:07:10;;;;;;;16.00;9.30;;;;;;;-1.35;84.82;95089.07;106583;1275;25385;-77
2023/12/03 05:09:39;;;;;;;15.00;9.70;;;;;;;-1.34;84.64;95101.51;106684;1275;25304;-77
2023/12/03 05:12:08;;;;;;;16.00;9.90;;;;;;;-1.31;84.17;95100.36;106661;1275;24337;-79
2023/12/03 05:14:37;;;;;;;16.10;9.80;;;;;;;-1.29;84.55;95103.83;106951;1275;22650;-79
2023/12/03 05:17:06;;;;;;;23.10;11.80;;;;;;;-1.26;84.33;95110.46;106801;1275;25427;-79
2023/12/03 05:19:34;;;;;;;17.40;9.60;;;;;;;-1.27;83.84;95114.06;106804;1275;22861;-80
2023/12/03 05:22:02;;;;;;;20.40;11.30;;;;;;;-1.27;83.82;95125.79;106964;1275;22540;-79
2023/12/03 05:24:30;;;;;;;16.30;10.20;;;;;;;-1.28;84.10;95136.48;106703;1275;25295;-80
2023/12/03 05:26:58;;;;;;;18.80;10.10;;;;;;;-1.28;83.74;95141.65;106592;1275;25314;-80
2023/12/03 05:29:27;;;;;;;16.90;9.50;;;;;;;-1.27;83.58;95141.48;106579;1275;25420;-80
2023/12/03 05:31:55;;;;;;;17.40;10.20;;;;;;;-1.26;83.43;95148.06;106608;1275;24243;-80
2023/12/03 05:34:24;;;;;;;17.80;9.10;;;;;;;-1.25;83.42;95158.29;106630;1275;24377;-79
2023/12/03 05:36:52;;;;;;;12.70;7.70;;;;;;;-1.26;83.51;95157.55;106572;1275;22521;-80
2023/12/03 05:39:22;;;;;;;15.80;8.80;;;;;;;-1.27;83.13;95153.91;106636;1275;25435;-80
2023/12/03 05:41:50;;;;;;;18.50;11.60;;;;;;;-1.29;83.43;95148.19;106602;1275;22646;-79
2023/12/03 05:44:18;;;;;;;16.20;10.10;;;;;;;-1.32;83.31;95169.52;106593;1275;22520;-79
2023/12/03 05:46:46;;;;;;;14.90;8.70;;;;;;;-1.37;83.24;95183.23;106638;1268;22539;-80
2023/12/03 05:49:14;;;;;;;14.60;8.00;;;;;;;-1.39;83.34;95194.05;106622;1275;26866;-79
2023/12/03 05:51:44;;;;;;;14.40;8.10;;;;;;;-1.39;83.70;95199.41;106684;1275;25383;-79
2023/12/03 05:54:12;;;;;;;11.70;6.10;;;;;;;-1.40;83.54;95214.21;107008;1275;22637;-79
2023/12/03 05:56:44;;;;;;;18.50;10.70;;;;;;;-1.44;83.58;95206.89;106566;1275;24056;-80
2023/12/03 05:59:15;;;;;;;14.80;9.00;;;;;;;-1.44;83.20;95214.49;106681;1275;25277;-79
2023/12/03 06:01:43;;;;;;;19.50;10.80;;;;;;;-1.43;83.44;95205.89;106707;1275;22529;-80
2023/12/03 06:04:11;;;;;;;16.30;9.70;;;;;;;-1.46;83.49;95211.86;106576;1271;25708;-79
2023/12/03 06:06:39;;;;;;;19.40;10.80;;;;;;;-1.48;83.63;95216.64;106608;1275;22646;-79
2023/12/03 06:09:09;;;;;;;16.60;9.20;;;;;;;-1.48;83.14;95217.15;106589;1275;23892;-79
2023/12/03 06:11:37;;;;;;;15.00;9.20;;;;;;;-1.47;83.00;95224.92;106803;1275;23191;-79
2023/12/03 06:14:06;;;;;;;17.00;10.40;;;;;;;-1.44;83.18;95227.58;106848;1275;22544;-80
2023/12/03 06:16:34;;;;;;;14.10;9.30;;;;;;;-1.43;83.04;95223.98;106755;1275;22777;-80
2023/12/03 06:19:03;;;;;;;14.10;8.30;;;;;;;-1.45;82.74;95237.89;106557;1275;22575;-79
2023/12/03 06:21:31;;;;;;;16.80;9.80;;;;;;;-1.46;83.02;95249.81;106526;1275;24440;-79
2023/12/03 06:24:00;;;;;;;19.30;10.40;;;;;;;-1.49;83.26;95267.33;106577;1275;25380;-80
2023/12/03 06:26:28;;;;;;;16.30;9.10;;;;;;;-1.50;83.52;95280.23;106557;1275;22604;-80
2023/12/03 06:28:56;;;;;;;16.60;9.70;;;;;;;-1.53;83.49;95286.73;106576;1275;25359;-81
2023/12/03 06:31:25;;;;;;;18.30;9.40;;;;;;;-1.55;83.39;95288.92;106791;1275;24320;-80
2023/12/03 06:33:53;;;;;;;15.00;8.60;;;;;;;-1.59;83.40;95289.36;106734;1275;24293;-80
2023/12/03 06:36:22;;;;;;;19.00;10.40;;;;;;;-1.63;83.34;95298.41;106773;1275;22549;-79
2023/12/03 06:38:50;;;;;;;20.80;11.40;;;;;;;-1.63;83.43;95313.23;106563;1275;24245;-80
2023/12/03 06:41:18;;;;;;;17.70;10.20;;;;;;;-1.62;83.31;95325.33;106613;1275;25479;-79
2023/12/03 06:43:47;;;;;;;14.10;8.40;;;;;;;-1.64;83.33;95332.52;106569;1275;24244;-80
2023/12/03 06:46:16;;;;;;;14.60;8.10;;;;;;;-1.61;83.08;95340.86;106402;1275;26536;-79
2023/12/03 06:48:44;;;;;;;14.40;8.50;;;;;;;-1.59;83.29;95353.88;106629;1275;22534;-79
2023/12/03 06:51:13;;;;;;;10.10;6.10;;;;;;;-1.53;83.04;95353.85;106637;1275;22568;-79
2023/12/03 06:53:41;;;;;;;11.30;7.00;;;;;;;-1.45;82.75;95362.83;106585;1275;25383;-79
2023/12/03 06:56:11;;;;;;;12.60;6.90;;;;;;;-1.40;82.60;95365.17;106618;1275;22639;-78
2023/12/03 06:58:39;;;;;;;14.10;7.90;;;;;;;-1.33;82.37;95363.96;106617;1275;24287;-79
2023/12/03 07:01:08;;;;;;;11.60;7.30;;;;;;;-1.24;82.25;95355.02;106570;1275;22483;-79
2023/12/03 07:03:36;;;;;;;14.10;7.30;;;;;;;-1.14;81.98;95354.70;106731;1275;22649;-79
2023/12/03 07:06:05;;;;;;;17.30;10.60;;;;;;;-1.02;81.60;95366.19;106704;1275;23923;-79
2023/12/03 07:08:33;;;;;;;16.60;10.00;;;;;;;-1.00;81.12;95369.19;106679;1275;24404;-78
2023/12/03 07:11:02;;;;;;;15.20;9.30;;;;;;;-1.00;81.28;95375.59;106584;1275;22759;-79
2023/12/03 07:13:30;;;;;;;11.50;7.10;;;;;;;-0.97;81.30;95371.33;106546;1275;22527;-79
2023/12/03 07:15:58;;;;;;;13.50;7.60;;;;;;;-0.95;80.98;95376.38;106760;1275;22593;-79
2023/12/03 07:18:26;;;;;;;11.50;7.20;;;;;;;-0.89;80.95;95375.30;106696;1275;26675;-79
2023/12/03 07:20:55;;;;;;;11.50;7.20;;;;;;;-0.78;80.92;95381.06;106614;1275;23138;-79
2023/12/03 07:23:23;;;;;;;13.70;7.70;;;;;;;-0.72;80.32;95379.64;106655;1275;23043;-78
2023/12/03 07:25:51;;;;;;;14.00;7.50;;;;;;;-0.62;80.45;95387.10;106588;1275;24249;-79
2023/12/03 07:28:20;;;;;;;10.70;6.90;;;;;;;-0.55;79.93;95389.30;106604;1275;24361;-79
2023/12/03 07:30:48;;;;;;;14.80;8.00;;;;;;;-0.52;79.21;95399.39;106626;1275;22550;-79
2023/12/03 07:33:16;;;;;;;12.90;8.50;;;;;;;-0.48;79.27;95404.33;106600;1275;25383;-79
2023/12/03 07:35:45;;;;;;;11.30;6.50;;;;;;;-0.43;78.50;95408.91;106608;1275;22941;-79
2023/12/03 07:38:13;;;;;;;12.20;7.50;;;;;;;-0.46;78.12;95414.04;106614;1275;24277;-79
2023/12/03 07:40:41;;;;;;;17.20;9.30;;;;;;;-0.48;78.04;95423.16;106564;1275;22532;-79
2023/12/03 07:43:09;;;;;;;16.40;9.70;;;;;;;-0.46;78.52;95429.59;106606;1275;25448;-79
2023/12/03 07:45:38;;;;;;;14.60;9.40;;;;;;;-0.45;78.30;95442.57;106608;1275;22680;-78
2023/12/03 07:48:06;;;;;;;11.20;7.40;;;;;;;-0.50;77.72;95450.58;106586;1264;25362;-79
2023/12/03 07:50:34;;;;;;;12.80;7.40;;;;;;;-0.53;78.27;95455.54;106793;1275;23441;-79
2023/12/03 07:53:06;;;;;;;12.00;7.80;;;;;;;-0.63;78.23;95460.48;106709;1275;22643;-79
2023/12/03 07:55:34;;;;;;;12.60;8.50;;;;;;;-0.72;78.73;95472.91;106578;1275;22660;-79
2023/12/03 07:58:02;;;;;;;15.80;9.90;;;;;;;-0.75;78.99;95478.70;106621;1275;25358;-79
2023/12/03 08:00:30;;;;;;;15.20;8.60;;;;;;;-0.80;79.39;95483.92;106767;1275;22614;-79
2023/12/03 08:02:59;;;;;;;19.30;11.40;;;;;;;-0.82;79.38;95483.38;106639;1275;24309;-79
2023/12/03 08:05:27;;;;;;;16.00;9.50;;;;;;;-0.82;79.77;95489.06;106656;1275;22575;-81
2023/12/03 08:07:55;;;;;;;16.30;9.80;;;;;;;-0.88;79.97;95494.80;106599;1275;24240;-79
2023/12/03 08:10:24;;;;;;;20.30;11.70;;;;;;;-0.87;79.96;95496.23;106809;1275;22642;-79
2023/12/03 08:12:52;;;;;;;17.20;10.70;;;;;;;-0.86;80.46;95497.80;106633;1275;24509;-79
2023/12/03 08:15:20;;;;;;;19.40;11.40;;;;;;;-0.89;80.74;95503.08;106627;1275;22861;-78
2023/12/03 08:17:50;;;;;;;19.20;12.10;;;;;;;-0.85;80.82;95505.42;106656;1265;22771;-79
2023/12/03 08:20:20;;;;;;;22.00;11.90;;;;;;;-0.84;80.97;95507.33;106634;1275;25422;-79
2023/12/03 08:22:48;;;;;;;17.20;10.70;;;;;;;-0.84;81.22;95508.70;106579;1275;22539;-79
2023/12/03 08:25:16;;;;;;;23.50;13.60;;;;;;;-0.86;81.27;95509.02;106565;1275;25425;-80
2023/12/03 08:27:45;;;;;;;18.50;12.70;;;;;;;-0.86;81.34;95514.89;106646;1275;25505;-79
2023/12/03 08:30:17;;;;;;;21.70;13.00;;;;;;;-0.84;81.99;95515.95;106577;1275;22536;-79
2023/12/03 08:32:45;;;;;;;15.80;10.10;;;;;;;-0.80;82.35;95513.13;106614;1275;22527;-79
2023/12/03 08:35:14;;;;;;;21.10;12.20;;;;;;;-0.79;81.62;95508.33;106673;1275;22527;-79
2023/12/03 08:37:45;;;;;;;18.40;11.90;;;;;;;-0.77;82.04;95512.85;106579;1275;25462;-79
2023/12/03 08:40:14;;;;;;;19.00;12.40;;;;;;;-0.75;81.99;95505.48;106601;1275;22544;-80
2023/12/03 08:42:44;;;;;;;22.60;13.00;;;;;;;-0.75;81.91;95504.95;106862;1275;22539;-80
2023/12/03 08:45:13;;;;;;;22.70;12.20;;;;;;;-0.79;81.80;95514.00;106916;1271;25383;-79
2023/12/03 08:47:41;;;;;;;31.40;17.10;;;;;;;-0.86;82.04;95521.09;106710;1275;23899;-79
2023/12/03 08:50:10;;;;;;;37.20;20.10;;;;;;;-0.90;82.09;95523.27;106583;1275;22520;-79
2023/12/03 08:52:38;;;;;;;27.60;16.80;;;;;;;-0.96;82.57;95526.05;106572;1275;26011;-79
2023/12/03 08:55:08;;;;;;;23.40;14.20;;;;;;;-1.00;82.81;95529.74;106711;1275;25426;-79
2023/12/03 08:57:39;;;;;;;22.80;13.50;;;;;;;-1.04;82.79;95529.11;106628;1275;22576;-79
2023/12/03 09:00:10;;;;;;;25.70;14.90;;;;;;;-1.11;82.95;95536.73;106669;1275;26609;-79
2023/12/03 09:02:46;;;;;;;23.20;15.50;;;;;;;-1.14;82.86;95534.23;106751;1275;24290;-79
2023/12/03 09:05:15;;;;;;;29.40;16.30;;;;;;;-1.15;82.96;95537.82;106593;1275;25490;-79
2023/12/03 09:07:51;;;;;;;28.90;15.20;;;;;;;-1.18;83.56;95541.19;106772;1275;22642;-79
2023/12/03 09:10:19;;;;;;;21.90;13.20;;;;;;;-1.18;83.74;95547.95;106624;1275;25381;-79
2023/12/03 09:12:48;;;;;;;30.00;18.40;;;;;;;-1.17;84.27;95550.56;106568;1275;22859;-79
2023/12/03 09:15:16;;;;;;;26.30;14.30;;;;;;;-1.13;84.31;95550.48;106584;1275;22525;-79
2023/12/03 09:17:45;;;;;;;22.20;14.40;;;;;;;-1.08;83.85;95554.39;106633;1275;22527;-79
2023/12/03 09:20:13;;;;;;;20.20;12.00;;;;;;;-1.08;83.94;95555.09;106381;1275;24477;-80
2023/12/03 09:22:41;;;;;;;16.10;10.70;;;;;;;-1.13;83.72;95558.27;106688;1275;22603;-78
2023/12/03 09:25:13;;;;;;;18.40;11.20;;;;;;;-1.12;83.73;95560.17;106585;1275;26593;-80
2023/12/03 09:27:42;;;;;;;20.40;11.50;;;;;;;-1.11;83.87;95562.11;106702;1275;25652;-78
2023/12/03 09:30:11;;;;;;;22.20;12.70;;;;;;;-1.09;83.93;95564.92;106591;1275;24227;-79
2023/12/03 09:32:40;;;;;;;18.40;12.60;;;;;;;-1.01;83.91;95566.13;106598;1275;22527;-79
2023/12/03 09:35:08;;;;;;;21.20;12.70;;;;;;;-0.95;83.89;95563.89;106551;1275;24366;-79
2023/12/03 09:37:36;;;;;;;21.00;12.00;;;;;;;-0.84;83.81;95560.17;106601;1275;24233;-79
2023/12/03 09:40:06;;;;;;;18.30;10.50;;;;;;;-0.76;83.50;95560.38;106582;1275;22513;-79
2023/12/03 09:42:46;;;;;;;17.40;10.00;;;;;;;-0.70;82.85;95556.19;106578;1275;22541;-79
2023/12/03 09:45:16;;;;;;;17.90;11.50;;;;;;;-0.65;82.66;95559.26;106651;1275;22585;-79
2023/12/03 09:47:49;;;;;;;21.00;12.50;;;;;;;-0.62;82.57;95559.16;106809;1275;23948;-79
2023/12/03 09:50:19;;;;;;;17.90;11.40;;;;;;;-0.59;82.28;95559.71;106964;1275;22573;-80
2023/12/03 09:52:53;;;;;;;16.90;10.30;;;;;;;-0.65;82.16;95560.13;106997;1275;23817;-78
2023/12/03 09:55:25;;;;;;;20.00;11.80;;;;;;;-0.68;82.43;95570.26;106709;1265;25331;-79
2023/12/03 09:57:58;;;;;;;19.50;12.80;;;;;;;-0.71;82.32;95572.94;106633;1275;24289;-79
2023/12/03 10:00:31;;;;;;;18.90;11.90;;;;;;;-0.75;82.18;95579.06;106691;1275;24289;-79
2023/12/03 10:03:04;;;;;;;21.00;13.30;;;;;;;-0.82;82.24;95581.64;106571;1275;22637;-79
2023/12/03 10:05:40;;;;;;;20.20;12.80;;;;;;;-0.88;82.22;95583.91;106658;1275;22527;-79
2023/12/03 10:08:09;;;;;;;19.50;11.60;;;;;;;-0.88;82.34;95587.70;106614;1275;24535;-79
2023/12/03 10:10:42;;;;;;;21.30;14.00;;;;;;;-0.87;82.33;95591.02;106578;1275;24251;-80
2023/12/03 10:13:14;;;;;;;25.10;15.00;;;;;;;-0.90;82.35;95591.46;106664;1271;22539;-79
2023/12/03 10:15:47;;;;;;;22.90;13.90;;;;;;;-0.94;82.68;95590.49;106793;1275;25295;-79
2023/12/03 10:18:21;;;;;;;23.20;13.80;;;;;;;-0.95;82.60;95587.71;106937;1275;22579;-79
2023/12/03 10:21:05;;;;;;;21.90;13.00;;;;;;;-0.96;82.64;95590.95;106996;1275;23465;-82
2023/12/03 10:23:36;;;;;;;24.40;14.00;;;;;;;-0.98;82.60;95591.95;106876;1275;22530;-80
2023/12/03 10:26:15;;;;;;;25.40;14.60;;;;;;;-1.00;82.65;95593.97;106639;1275;22566;-80
2023/12/03 10:28:44;;;;;;;25.10;15.30;;;;;;;-0.99;82.92;95589.67;106569;1275;25706;-79
2023/12/03 10:31:12;;;;;;;23.80;15.30;;;;;;;-0.96;83.11;95593.54;106585;1275;22532;-80
2023/12/03 10:33:44;;;;;;;29.70;18.00;;;;;;;-0.96;83.02;95596.48;106766;1263;24243;-80
2023/12/03 10:36:14;;;;;;;33.40;19.60;;;;;;;-0.95;82.97;95601.02;106666;1275;22502;-80
2023/12/03 10:38:43;;;;;;;31.00;17.30;;;;;;;-0.96;83.08;95601.67;106957;1275;25358;-78
2023/12/03 10:41:14;;;;;;;35.30;18.00;;;;;;;-0.91;83.09;95599.73;106647;1271;22523;-79
2023/12/03 10:43:44;;;;;;;23.60;13.40;;;;;;;-0.84;82.84;95601.44;106526;1275;23891;-78
2023/12/03 10:46:13;;;;;;;24.20;14.10;;;;;;;-0.84;82.62;95600.08;106576;1275;26654;-78
2023/12/03 10:48:46;;;;;;;25.50;14.60;;;;;;;-0.82;82.41;95605.46;106872;1275;22523;-78
2023/12/03 10:51:15;;;;;;;22.50;14.00;;;;;;;-0.77;82.46;95605.77;106986;1275;22530;-78
2023/12/03 10:53:49;;;;;;;23.10;14.00;;;;;;;-0.75;82.28;95602.20;106933;1275;23363;-78
2023/12/03 10:56:25;;;;;;;23.60;13.40;;;;;;;-0.74;82.03;95606.70;106593;1275;24252;-77
2023/12/03 10:58:56;;;;;;;25.20;14.70;;;;;;;-0.73;81.87;95605.02;106644;1275;24354;-78
2023/12/03 11:01:28;;;;;;;30.50;15.80;;;;;;;-0.73;81.66;95605.34;106808;1275;25435;-77
2023/12/03 11:04:05;;;;;;;24.20;15.20;;;;;;;-0.72;81.58;95599.50;107007;1275;25290;-78
2023/12/03 11:06:34;;;;;;;22.90;13.50;;;;;;;-0.70;81.27;95597.48;106653;1275;24786;-78
2023/12/03 11:09:07;;;;;;;28.10;16.00;;;;;;;-0.69;81.18;95589.20;106716;1275;22523;-77
2023/12/03 11:11:38;;;;;;;21.00;13.00;;;;;;;-0.62;81.10;95582.98;106576;1275;22571;-78
2023/12/03 11:14:07;;;;;;;21.00;13.20;;;;;;;-0.60;81.03;95578.39;106631;1275;22531;-77
2023/12/03 11:17:04;;;;;;;19.20;12.20;;;;;;;-0.56;80.98;95575.89;106693;1275;22658;-78
2023/12/03 11:19:37;;;;;;;23.10;13.10;;;;;;;-0.51;81.14;95577.20;106683;1275;22543;-77
2023/12/03 11:22:35;;;;;;;19.90;12.10;;;;;;;-0.45;81.10;95577.02;106610;1271;24374;-77
2023/12/03 11:25:15;;;;;;;18.10;11.60;;;;;;;-0.44;80.86;95576.33;106689;1275;22534;-76
2023/12/03 11:27:45;;;;;;;23.40;13.70;;;;;;;-0.39;80.80;95579.72;106737;1275;22535;-78
2023/12/03 11:30:35;;;;;;;20.20;12.50;;;;;;;-0.33;80.61;95582.99;106652;1265;24238;-78
2023/12/03 11:33:10;;;;;;;22.30;12.80;;;;;;;-0.36;80.31;95591.89;106598;1275;22524;-78
2023/12/03 11:35:43;;;;;;;20.80;12.50;;;;;;;-0.37;80.57;95602.77;106678;1275;25297;-77